createdAt,value
2023-08-01T00:00:15.450Z,99.99
2023-08-01T00:01:15.531Z,99.99
2023-08-01T00:02:15.416Z,99.99
2023-08-01T00:03:15.459Z,99.99
2023-08-01T00:04:15.399Z,99.99
2023-08-01T00:05:15.386Z,99.99
2023-08-01T00:06:15.365Z,99.99
2023-08-01T00:07:15.344Z,99.99
2023-08-01T00:08:15.326Z,99.99
2023-08-01T00:09:15.331Z,99.99
2023-08-01T00:10:15.302Z,99.99
2023-08-01T00:11:15.294Z,99.99
2023-08-01T00:12:15.274Z,99.99
2023-08-01T00:13:15.278Z,99.99
2023-08-01T00:14:15.295Z,99.99
2023-08-01T00:15:15.234Z,99.99
2023-08-01T00:16:15.267Z,99.99
2023-08-01T00:17:15.206Z,99.99
2023-08-01T00:18:15.207Z,99.99
2023-08-01T00:19:15.177Z,99.99
2023-08-01T00:20:15.165Z,99.99
2023-08-01T00:21:15.150Z,99.99
2023-08-01T00:22:15.141Z,99.99
2023-08-01T00:23:15.142Z,99.99
2023-08-01T00:24:15.119Z,99.99
2023-08-01T00:25:15.099Z,99.99
2023-08-01T00:26:15.086Z,99.99
2023-08-01T00:27:15.109Z,99.99
2023-08-01T00:28:15.255Z,99.99
2023-08-01T00:29:15.101Z,99.99
2023-08-01T00:30:15.089Z,99.99
2023-08-01T00:31:15.083Z,99.99
2023-08-01T00:32:15.166Z,99.99
2023-08-01T00:33:15.084Z,99.99
2023-08-01T00:34:14.988Z,99.99
2023-08-01T00:35:14.976Z,99.99
2023-08-01T00:36:14.981Z,99.99
2023-08-01T00:37:14.962Z,99.99
2023-08-01T00:38:14.932Z,99.99
2023-08-01T00:39:14.910Z,99.99
2023-08-01T00:40:14.921Z,99.99
2023-08-01T00:41:14.929Z,99.99
2023-08-01T00:42:14.898Z,99.99
2023-08-01T00:43:14.862Z,99.99
2023-08-01T00:44:14.852Z,99.99
2023-08-01T00:45:14.839Z,99.99
2023-08-01T00:46:14.860Z,99.99
2023-08-01T00:47:14.809Z,99.99
2023-08-01T00:48:14.828Z,99.99
2023-08-01T00:49:14.783Z,99.99
2023-08-01T00:50:14.780Z,99.99
2023-08-01T00:51:14.774Z,99.99
2023-08-01T00:52:14.739Z,99.99
2023-08-01T00:53:14.748Z,99.99
2023-08-01T00:54:14.715Z,99.99
2023-08-01T00:55:14.702Z,99.99
2023-08-01T00:56:14.730Z,99.99
2023-08-01T00:57:14.683Z,99.99
2023-08-01T00:58:14.668Z,99.99
2023-08-01T00:59:14.650Z,99.99
2023-08-01T01:00:14.640Z,99.99
2023-08-01T01:01:14.670Z,99.99
2023-08-01T01:02:14.676Z,99.99
2023-08-01T01:03:14.650Z,99.99
2023-08-01T01:04:14.598Z,99.99
2023-08-01T01:05:14.598Z,99.99
2023-08-01T01:06:14.575Z,99.99
2023-08-01T01:07:14.555Z,99.99
2023-08-01T01:08:14.555Z,99.99
2023-08-01T01:09:14.523Z,99.99
2023-08-01T01:10:14.544Z,99.99
2023-08-01T01:11:14.489Z,99.99
2023-08-01T01:12:14.479Z,99.99
2023-08-01T01:13:14.469Z,99.99
2023-08-01T01:14:14.507Z,99.99
2023-08-01T01:15:14.455Z,99.99
2023-08-01T01:16:14.484Z,99.99
2023-08-01T01:17:14.415Z,99.99
2023-08-01T01:18:14.430Z,99.99
2023-08-01T01:19:14.402Z,99.99
2023-08-01T01:20:14.401Z,99.99
2023-08-01T01:21:14.366Z,99.99
2023-08-01T01:22:14.349Z,99.99
2023-08-01T01:23:14.347Z,99.99
2023-08-01T01:24:14.338Z,99.99
2023-08-01T01:25:14.308Z,99.99
2023-08-01T01:26:14.304Z,99.99
2023-08-01T01:27:14.287Z,99.99
2023-08-01T01:28:14.286Z,99.99
2023-08-01T01:29:14.273Z,99.99
2023-08-01T01:30:14.247Z,99.99
2023-08-01T01:31:14.305Z,99.99
2023-08-01T01:32:14.237Z,99.99
2023-08-01T01:33:14.217Z,99.99
2023-08-01T01:34:14.239Z,99.99
2023-08-01T01:35:14.178Z,99.99
2023-08-01T01:36:14.173Z,99.99
2023-08-01T01:37:14.164Z,99.99
2023-08-01T01:38:14.165Z,99.99
2023-08-01T01:39:14.152Z,99.99
2023-08-01T01:40:14.115Z,99.99
2023-08-01T01:41:14.107Z,99.99
2023-08-01T01:42:14.128Z,99.99
2023-08-01T01:45:04.834Z,99.99
2023-08-01T01:46:04.898Z,99.99
2023-08-01T01:47:04.801Z,99.99
2023-08-01T01:48:04.802Z,99.99
2023-08-01T01:49:04.771Z,99.99
2023-08-01T01:50:04.804Z,99.99
2023-08-01T01:51:04.774Z,99.99
2023-08-01T01:52:04.744Z,99.99
2023-08-01T01:53:04.745Z,99.99
2023-08-01T01:54:04.706Z,99.99
2023-08-01T01:55:04.701Z,99.99
2023-08-01T01:56:04.704Z,99.99
2023-08-01T01:57:04.695Z,99.99
2023-08-01T01:58:04.669Z,99.99
2023-08-01T01:59:04.647Z,99.99
2023-08-01T02:00:04.630Z,99.99
2023-08-01T02:01:04.653Z,99.99
2023-08-01T02:02:04.613Z,99.99
2023-08-01T02:03:04.597Z,99.99
2023-08-01T02:04:04.573Z,99.99
2023-08-01T02:05:04.620Z,99.99
2023-08-01T02:06:04.583Z,99.99
2023-08-01T02:07:04.570Z,99.99
2023-08-01T02:08:04.525Z,99.99
2023-08-01T02:09:04.547Z,99.99
2023-08-01T02:10:04.573Z,99.99
2023-08-01T02:11:04.507Z,99.99
2023-08-01T02:12:04.488Z,99.99
2023-08-01T02:13:04.463Z,99.99
2023-08-01T02:14:04.460Z,99.99
2023-08-01T02:15:04.440Z,99.99
2023-08-01T02:16:04.461Z,99.99
2023-08-01T02:17:04.413Z,99.99
2023-08-01T02:18:04.449Z,99.99
2023-08-01T02:19:04.401Z,99.99
2023-08-01T02:20:04.368Z,99.99
2023-08-01T02:21:04.377Z,99.99
2023-08-01T02:22:04.368Z,99.99
2023-08-01T02:23:04.342Z,99.99
2023-08-01T02:24:04.325Z,99.99
2023-08-01T02:25:04.337Z,99.99
2023-08-01T02:26:04.320Z,99.99
2023-08-01T02:27:04.283Z,99.99
2023-08-01T02:28:04.319Z,99.99
2023-08-01T02:29:04.266Z,99.99
2023-08-01T02:30:04.267Z,99.99
2023-08-01T02:31:04.238Z,99.99
2023-08-01T02:32:04.260Z,99.99
2023-08-01T02:33:04.277Z,99.99
2023-08-01T02:34:04.204Z,99.99
2023-08-01T02:35:04.192Z,99.99
2023-08-01T02:36:04.170Z,99.99
2023-08-01T02:37:04.160Z,99.99
2023-08-01T02:38:04.154Z,99.99
2023-08-01T02:39:04.140Z,99.99
2023-08-01T02:40:04.148Z,99.99
2023-08-01T02:41:04.103Z,99.99
2023-08-01T02:42:04.083Z,99.99
2023-08-01T02:43:04.081Z,99.99
2023-08-01T02:44:04.075Z,99.99
2023-08-01T02:45:04.044Z,99.99
2023-08-01T02:46:04.046Z,99.99
2023-08-01T02:47:04.040Z,99.99
2023-08-01T02:48:04.036Z,99.99
2023-08-01T02:49:04.005Z,99.99
2023-08-01T02:50:03.982Z,99.99
2023-08-01T02:51:03.975Z,99.99
2023-08-01T02:52:03.967Z,99.99
2023-08-01T02:53:03.950Z,99.99
2023-08-01T02:54:03.970Z,99.99
2023-08-01T02:55:03.917Z,99.99
2023-08-01T02:56:03.900Z,99.99
2023-08-01T02:57:03.884Z,99.99
2023-08-01T02:58:03.888Z,99.99
2023-08-01T02:59:03.877Z,99.99
2023-08-01T03:00:03.842Z,99.99
2023-08-01T03:01:03.849Z,99.99
2023-08-01T03:02:03.830Z,99.99
2023-08-01T03:03:03.891Z,99.99
2023-08-01T03:04:03.794Z,99.99
2023-08-01T03:05:03.786Z,99.99
2023-08-01T03:06:03.768Z,99.99
2023-08-01T03:07:03.752Z,99.99
2023-08-01T03:08:03.748Z,99.99
2023-08-01T03:09:41.946Z,99.99
2023-08-01T03:10:03.716Z,99.99
2023-08-01T03:11:03.702Z,99.99
2023-08-01T03:12:03.685Z,99.99
2023-08-01T03:13:03.710Z,99.99
2023-08-01T03:14:03.660Z,99.99
2023-08-01T03:15:03.649Z,99.99
2023-08-01T03:16:03.675Z,99.99
2023-08-01T03:17:03.636Z,99.99
2023-08-01T03:18:03.665Z,99.99
2023-08-01T03:19:03.599Z,99.99
2023-08-01T03:20:03.595Z,99.99
2023-08-01T03:21:03.586Z,99.99
2023-08-01T03:22:03.558Z,99.99
2023-08-01T03:23:03.560Z,99.99
2023-08-01T03:24:03.539Z,99.99
2023-08-01T03:25:03.593Z,99.99
2023-08-01T03:26:03.521Z,99.99
2023-08-01T03:27:03.507Z,99.99
2023-08-01T03:28:03.572Z,99.99
2023-08-01T03:29:03.464Z,99.99
2023-08-01T03:30:03.454Z,99.99
2023-08-01T03:31:03.470Z,99.99
2023-08-01T03:32:03.534Z,99.99
2023-08-01T03:33:03.496Z,99.99
2023-08-01T03:34:03.411Z,99.99
2023-08-01T03:35:03.486Z,99.99
2023-08-01T03:36:03.380Z,99.99
2023-08-01T03:37:03.389Z,99.99
2023-08-01T03:38:03.349Z,99.99
2023-08-01T03:39:03.341Z,99.99
2023-08-01T03:40:03.329Z,99.99
2023-08-01T03:41:03.370Z,99.99
2023-08-01T03:42:03.324Z,99.99
2023-08-01T03:43:03.288Z,99.99
2023-08-01T03:44:03.281Z,99.99
2023-08-01T03:45:03.262Z,99.99
2023-08-01T03:46:03.362Z,99.99
2023-08-01T03:47:03.252Z,99.99
2023-08-01T03:48:03.266Z,99.99
2023-08-01T03:49:03.221Z,99.99
2023-08-01T03:50:03.200Z,99.99
2023-08-01T03:51:03.201Z,99.99
2023-08-01T03:52:03.160Z,99.99
2023-08-01T03:53:03.147Z,99.99
2023-08-01T03:54:12.826Z,99.99
2023-08-01T03:55:03.154Z,99.99
2023-08-01T03:56:03.128Z,99.99
2023-08-01T03:57:03.132Z,99.99
2023-08-01T03:58:03.090Z,99.99
2023-08-01T03:59:03.075Z,99.99
2023-08-01T04:00:03.059Z,99.99
2023-08-01T04:01:03.096Z,99.99
2023-08-01T04:02:03.032Z,99.99
2023-08-01T04:03:03.166Z,99.99
2023-08-01T04:04:03.079Z,99.99
2023-08-01T04:05:03.004Z,99.99
2023-08-01T04:06:02.988Z,99.99
2023-08-01T04:07:02.965Z,99.99
2023-08-01T04:08:03.038Z,99.99
2023-08-01T04:09:02.945Z,99.99
2023-08-01T04:10:02.948Z,99.99
2023-08-01T04:11:02.916Z,99.99
2023-08-01T04:12:02.902Z,99.99
2023-08-01T04:13:02.922Z,99.99
2023-08-01T04:14:02.869Z,99.99
2023-08-01T04:15:02.872Z,99.99
2023-08-01T04:16:02.866Z,99.99
2023-08-01T04:17:02.861Z,99.99
2023-08-01T04:18:02.872Z,99.99
2023-08-01T04:19:02.830Z,99.99
2023-08-01T04:20:02.850Z,99.99
2023-08-01T04:21:02.777Z,99.99
2023-08-01T04:22:02.764Z,99.99
2023-08-01T04:23:02.757Z,99.99
2023-08-01T04:24:02.758Z,99.99
2023-08-01T04:25:02.722Z,99.99
2023-08-01T04:26:02.710Z,99.99
2023-08-01T04:27:02.710Z,99.99
2023-08-01T04:28:02.719Z,99.99
2023-08-01T04:29:02.720Z,99.99
2023-08-01T04:30:02.712Z,99.99
2023-08-01T04:31:02.699Z,99.99
2023-08-01T04:32:02.633Z,99.99
2023-08-01T04:33:02.678Z,99.99
2023-08-01T04:34:02.626Z,99.99
2023-08-01T04:35:02.607Z,99.99
2023-08-01T04:36:02.592Z,99.99
2023-08-01T04:37:02.572Z,99.99
2023-08-01T04:38:02.578Z,99.99
2023-08-01T04:39:02.563Z,99.99
2023-08-01T04:40:02.533Z,99.99
2023-08-01T04:41:02.518Z,99.99
2023-08-01T04:42:02.509Z,99.99
2023-08-01T04:43:02.516Z,99.99
2023-08-01T04:44:02.482Z,99.99
2023-08-01T04:45:02.492Z,99.99
2023-08-01T04:46:02.456Z,99.99
2023-08-01T04:47:02.548Z,99.99
2023-08-01T04:48:02.490Z,99.99
2023-08-01T04:49:02.416Z,99.99
2023-08-01T04:50:02.405Z,99.99
2023-08-01T04:51:02.383Z,99.99
2023-08-01T04:52:02.408Z,99.99
2023-08-01T04:53:02.375Z,99.99
2023-08-01T04:54:02.345Z,99.99
2023-08-01T04:55:02.341Z,99.99
2023-08-01T04:56:02.327Z,99.99
2023-08-01T04:57:02.320Z,99.99
2023-08-01T04:58:02.295Z,99.99
2023-08-01T04:59:02.295Z,99.99
2023-08-01T05:00:02.281Z,99.99
2023-08-01T05:01:02.348Z,99.99
2023-08-01T05:02:02.260Z,99.99
2023-08-01T05:03:02.282Z,99.99
2023-08-01T05:04:02.260Z,99.99
2023-08-01T05:05:02.204Z,99.99
2023-08-01T05:06:02.206Z,99.99
2023-08-01T05:07:02.176Z,99.99
2023-08-01T05:08:02.169Z,99.99
2023-08-01T05:09:02.151Z,99.99
2023-08-01T05:10:02.152Z,99.99
2023-08-01T05:11:02.143Z,99.99
2023-08-01T05:12:02.107Z,99.99
2023-08-01T05:13:02.118Z,99.99
2023-08-01T05:14:02.083Z,99.99
2023-08-01T05:15:02.110Z,99.99
2023-08-01T05:16:02.075Z,99.99
2023-08-01T05:17:02.150Z,99.99
2023-08-01T05:18:02.050Z,99.99
2023-08-01T05:19:02.027Z,99.99
2023-08-01T05:20:02.040Z,99.99
2023-08-01T05:21:02.011Z,99.99
2023-08-01T05:22:01.978Z,99.99
2023-08-01T05:23:01.970Z,99.99
2023-08-01T05:24:01.957Z,99.99
2023-08-01T05:25:01.962Z,99.99
2023-08-01T05:26:01.934Z,99.99
2023-08-01T05:27:01.920Z,99.99
2023-08-01T05:28:01.945Z,99.99
2023-08-01T05:29:01.916Z,99.99
2023-08-01T05:30:01.892Z,99.99
2023-08-01T05:31:01.919Z,99.99
2023-08-01T05:32:01.853Z,99.99
2023-08-01T05:33:01.863Z,99.99
2023-08-01T05:34:01.844Z,99.99
2023-08-01T05:35:01.810Z,99.99
2023-08-01T05:36:01.795Z,99.99
2023-08-01T05:37:01.785Z,99.99
2023-08-01T05:38:01.778Z,99.99
2023-08-01T05:39:01.805Z,99.99
2023-08-01T05:40:01.738Z,99.99
2023-08-01T05:41:01.736Z,99.99
2023-08-01T05:42:01.720Z,99.99
2023-08-01T05:43:01.716Z,99.99
2023-08-01T05:44:01.703Z,99.99
2023-08-01T05:45:01.676Z,99.99
2023-08-01T05:46:01.688Z,99.99
2023-08-01T05:47:01.649Z,99.99
2023-08-01T05:48:01.819Z,99.99
2023-08-01T05:49:01.667Z,99.99
2023-08-01T05:50:01.714Z,99.99
2023-08-01T05:51:01.615Z,99.99
2023-08-01T05:52:01.583Z,99.99
2023-08-01T05:53:01.601Z,99.99
2023-08-01T05:54:01.554Z,99.99
2023-08-01T05:55:01.594Z,99.99
2023-08-01T05:56:01.565Z,99.99
2023-08-01T05:57:01.540Z,99.99
2023-08-01T05:58:01.532Z,99.99
2023-08-01T05:59:01.495Z,99.99
2023-08-01T06:00:01.473Z,99.99
2023-08-01T06:01:01.485Z,99.99
2023-08-01T06:02:01.537Z,99.99
2023-08-01T06:03:01.482Z,99.99
2023-08-01T06:04:01.515Z,99.99
2023-08-01T06:05:01.432Z,99.99
2023-08-01T06:06:01.416Z,99.99
2023-08-01T06:07:01.403Z,99.99
2023-08-01T06:08:01.385Z,99.99
2023-08-01T06:09:01.362Z,99.99
2023-08-01T06:10:01.346Z,99.99
2023-08-01T06:11:01.354Z,99.99
2023-08-01T06:12:01.353Z,99.99
2023-08-01T06:13:01.310Z,99.99
2023-08-01T06:14:01.295Z,99.99
2023-08-01T06:15:01.293Z,99.99
2023-08-01T06:16:01.308Z,99.99
2023-08-01T06:17:01.271Z,99.99
2023-08-01T06:18:01.253Z,99.99
2023-08-01T06:19:01.227Z,99.99
2023-08-01T06:20:01.220Z,99.99
2023-08-01T06:21:01.245Z,99.99
2023-08-01T06:22:01.187Z,99.99
2023-08-01T06:23:01.187Z,99.99
2023-08-01T06:24:01.203Z,99.99
2023-08-01T06:25:01.150Z,99.99
2023-08-01T06:26:01.153Z,99.99
2023-08-01T06:27:01.120Z,99.99
2023-08-01T06:28:01.133Z,99.99
2023-08-01T06:29:01.096Z,99.99
2023-08-01T06:30:01.108Z,99.99
2023-08-01T06:31:01.090Z,99.99
2023-08-01T06:32:01.101Z,99.99
2023-08-01T06:33:01.099Z,99.99
2023-08-01T06:34:01.031Z,99.99
2023-08-01T06:35:01.042Z,99.99
2023-08-01T06:36:01.033Z,99.99
2023-08-01T06:37:01.020Z,99.99
2023-08-01T06:38:00.974Z,99.99
2023-08-01T06:39:00.968Z,99.99
2023-08-01T06:40:00.962Z,99.99
2023-08-01T06:41:00.933Z,99.99
2023-08-01T06:42:00.937Z,99.99
2023-08-01T06:43:00.918Z,99.99
2023-08-01T06:44:00.940Z,99.99
2023-08-01T06:45:00.897Z,99.99
2023-08-01T06:46:00.905Z,99.99
2023-08-01T06:47:00.873Z,99.99
2023-08-01T06:48:00.865Z,99.99
2023-08-01T06:49:00.854Z,99.99
2023-08-01T06:50:00.836Z,99.99
2023-08-01T06:51:00.806Z,99.99
2023-08-01T06:52:00.789Z,99.99
2023-08-01T06:53:00.803Z,99.99
2023-08-01T06:54:00.775Z,99.99
2023-08-01T06:55:00.752Z,99.99
2023-08-01T06:56:00.741Z,99.99
2023-08-01T06:57:00.723Z,99.99
2023-08-01T06:58:00.730Z,99.99
2023-08-01T06:59:00.711Z,99.99
2023-08-01T07:00:00.684Z,99.99
2023-08-01T07:01:00.679Z,99.99
2023-08-01T07:02:00.657Z,99.99
2023-08-01T07:03:00.773Z,99.99
2023-08-01T07:04:00.648Z,99.99
2023-08-01T07:05:00.618Z,99.99
2023-08-01T07:06:00.603Z,99.99
2023-08-01T07:07:00.601Z,99.99
2023-08-01T07:08:00.605Z,99.99
2023-08-01T07:09:00.643Z,99.99
2023-08-01T07:10:00.567Z,99.99
2023-08-01T07:11:00.549Z,99.99
2023-08-01T07:12:00.548Z,99.99
2023-08-01T07:13:00.533Z,99.99
2023-08-01T07:14:00.501Z,99.99
2023-08-01T07:15:02.508Z,99.99
2023-08-01T07:16:00.479Z,99.99
2023-08-01T07:17:00.458Z,99.99
2023-08-01T07:18:00.569Z,99.99
2023-08-01T07:19:00.434Z,99.99
2023-08-01T07:20:00.434Z,99.99
2023-08-01T07:21:00.403Z,99.99
2023-08-01T07:22:00.409Z,99.99
2023-08-01T07:23:00.413Z,99.99
2023-08-01T07:24:00.377Z,99.99
2023-08-01T07:25:00.388Z,99.99
2023-08-01T07:26:00.372Z,99.99
2023-08-01T07:27:00.358Z,99.99
2023-08-01T07:28:00.365Z,99.99
2023-08-01T07:29:00.303Z,99.99
2023-08-01T07:30:00.315Z,99.99
2023-08-01T07:31:00.289Z,99.99
2023-08-01T07:32:00.332Z,99.99
2023-08-01T07:33:00.264Z,99.99
2023-08-01T07:34:00.231Z,99.99
2023-08-01T07:35:00.232Z,99.99
2023-08-01T07:36:00.200Z,99.99
2023-08-01T07:37:00.233Z,99.99
2023-08-01T07:38:00.177Z,99.99
2023-08-01T07:39:00.177Z,99.99
2023-08-01T07:40:00.200Z,99.99
2023-08-01T07:41:00.217Z,99.99
2023-08-01T07:42:00.152Z,99.99
2023-08-01T07:43:00.120Z,99.99
2023-08-01T07:44:00.141Z,99.99
2023-08-01T07:45:00.102Z,99.99
2023-08-01T07:46:00.207Z,99.99
2023-08-01T07:47:00.070Z,99.99
2023-08-01T07:48:00.138Z,99.99
2023-08-01T07:49:00.047Z,99.99
2023-08-01T07:50:00.050Z,99.99
2023-08-01T07:51:00.038Z,99.99
2023-08-01T07:52:00.001Z,99.99
2023-08-01T07:52:59.976Z,99.99
2023-08-01T07:53:59.995Z,99.99
2023-08-01T07:54:59.993Z,99.99
2023-08-01T07:55:59.952Z,99.99
2023-08-01T07:56:59.963Z,99.99
2023-08-01T07:57:59.918Z,99.99
2023-08-01T07:58:59.901Z,99.99
2023-08-01T07:59:59.904Z,99.99
2023-08-01T08:00:59.927Z,99.99
2023-08-01T08:01:59.872Z,99.99
2023-08-01T08:02:59.873Z,99.99
2023-08-01T08:04:01.673Z,99.99
2023-08-01T08:04:59.841Z,99.99
2023-08-01T08:05:59.852Z,99.99
2023-08-01T08:06:59.792Z,99.99
2023-08-01T08:07:59.778Z,99.99
2023-08-01T08:08:59.777Z,99.99
2023-08-01T08:09:59.783Z,99.99
2023-08-01T08:10:59.743Z,99.99
2023-08-01T08:11:59.731Z,99.99
2023-08-01T08:12:59.797Z,99.99
2023-08-01T08:13:59.702Z,99.99
2023-08-01T08:14:59.704Z,99.99
2023-08-01T08:15:59.819Z,99.99
2023-08-01T08:16:59.740Z,99.99
2023-08-01T08:17:59.672Z,99.99
2023-08-01T08:18:59.657Z,99.99
2023-08-01T08:19:59.670Z,99.99
2023-08-01T08:20:59.611Z,99.99
2023-08-01T08:21:59.599Z,99.99
2023-08-01T08:22:59.584Z,99.99
2023-08-01T08:23:59.602Z,99.99
2023-08-01T08:24:59.575Z,99.99
2023-08-01T08:25:59.537Z,99.99
2023-08-01T08:26:59.528Z,99.99
2023-08-01T08:27:59.563Z,99.99
2023-08-01T08:28:59.539Z,99.99
2023-08-01T08:29:59.498Z,99.99
2023-08-01T08:30:59.514Z,99.99
2023-08-01T08:31:59.457Z,99.99
2023-08-01T08:32:59.481Z,99.99
2023-08-01T08:33:59.470Z,99.66
2023-08-01T08:34:59.424Z,98.20
2023-08-01T08:35:59.414Z,98.00
2023-08-01T08:36:59.392Z,97.55
2023-08-01T08:37:59.398Z,97.71
2023-08-01T08:38:59.418Z,96.06
2023-08-01T08:39:59.358Z,94.05
2023-08-01T08:40:59.345Z,95.15
2023-08-01T08:41:59.332Z,94.81
2023-08-01T08:42:59.339Z,92.71
2023-08-01T08:43:59.313Z,90.16
2023-08-01T08:44:59.428Z,88.42
2023-08-01T08:45:59.306Z,87.95
2023-08-01T08:46:59.288Z,84.85
2023-08-01T08:47:59.291Z,84.91
2023-08-01T08:48:59.237Z,84.67
2023-08-01T08:49:59.224Z,82.56
2023-08-01T08:50:59.210Z,81.13
2023-08-01T08:51:59.213Z,81.88
2023-08-01T08:52:59.205Z,78.28
2023-08-01T08:54:01.676Z,79.22
2023-08-01T08:54:59.158Z,81.52
2023-08-01T08:55:59.147Z,81.85
2023-08-01T08:56:59.151Z,85.71
2023-08-01T08:57:59.119Z,85.39
2023-08-01T08:58:59.141Z,86.33
2023-08-01T08:59:59.097Z,85.58
2023-08-01T09:00:59.168Z,81.14
2023-08-01T09:01:59.094Z,78.06
2023-08-01T09:02:59.091Z,79.99
2023-08-01T09:03:59.608Z,81.72
2023-08-01T09:04:59.057Z,81.90
2023-08-01T09:05:59.016Z,82.14
2023-08-01T09:06:59.047Z,82.01
2023-08-01T09:07:58.993Z,82.79
2023-08-01T09:08:58.991Z,84.27
2023-08-01T09:09:58.970Z,85.82
2023-08-01T09:10:58.978Z,86.07
2023-08-01T09:11:58.962Z,80.94
2023-08-01T09:12:58.950Z,82.91
2023-08-01T09:13:58.918Z,82.29
2023-08-01T09:15:00.094Z,82.73
2023-08-01T09:15:58.925Z,82.09
2023-08-01T09:16:58.951Z,81.73
2023-08-01T09:17:58.884Z,82.73
2023-08-01T09:18:58.852Z,82.81
2023-08-01T09:19:58.839Z,83.81
2023-08-01T09:20:58.841Z,83.85
2023-08-01T09:21:58.850Z,81.65
2023-08-01T09:22:58.806Z,80.08
2023-08-01T09:23:58.789Z,79.60
2023-08-01T09:24:58.788Z,78.99
2023-08-01T09:26:00.406Z,79.31
2023-08-01T09:26:58.746Z,76.95
2023-08-01T09:27:58.798Z,74.76
2023-08-01T09:28:58.737Z,73.85
2023-08-01T09:29:58.726Z,72.80
2023-08-01T09:30:58.883Z,73.74
2023-08-01T09:31:58.707Z,76.17
2023-08-01T09:32:58.741Z,77.42
2023-08-01T09:33:58.669Z,75.62
2023-08-01T09:34:58.657Z,74.08
2023-08-01T09:35:58.630Z,72.40
2023-08-01T09:36:58.628Z,70.42
2023-08-01T09:37:58.627Z,69.59
2023-08-01T09:38:58.612Z,67.97
2023-08-01T09:39:58.597Z,66.62
2023-08-01T09:40:58.593Z,66.25
2023-08-01T09:41:58.580Z,65.50
2023-08-01T09:42:58.558Z,65.86
2023-08-01T09:43:58.559Z,65.43
2023-08-01T09:44:58.514Z,64.87
2023-08-01T09:45:58.533Z,66.55
2023-08-01T09:46:58.509Z,67.84
2023-08-01T09:47:58.566Z,69.82
2023-08-01T09:48:58.520Z,66.85
2023-08-01T09:49:58.459Z,67.44
2023-08-01T09:50:58.447Z,69.53
2023-08-01T09:51:58.483Z,67.01
2023-08-01T09:52:59.994Z,69.32
2023-08-01T09:53:58.414Z,70.45
2023-08-01T09:54:58.390Z,69.13
2023-08-01T09:55:58.385Z,68.33
2023-08-01T09:56:58.370Z,66.15
2023-08-01T09:57:58.356Z,65.23
2023-08-01T09:58:58.358Z,62.40
2023-08-01T09:59:58.339Z,62.92
2023-08-01T10:00:58.325Z,66.25
2023-08-01T10:01:58.363Z,64.60
2023-08-01T10:02:58.480Z,66.35
2023-08-01T10:03:58.372Z,67.47
2023-08-01T10:04:58.338Z,68.90
2023-08-01T10:05:58.250Z,66.15
2023-08-01T10:06:58.278Z,65.56
2023-08-01T10:07:58.240Z,65.17
2023-08-01T10:08:58.357Z,63.10
2023-08-01T10:09:58.203Z,61.16
2023-08-01T10:10:58.257Z,60.31
2023-08-01T10:11:58.171Z,59.81
2023-08-01T10:12:58.181Z,58.70
2023-08-01T10:13:58.146Z,58.80
2023-08-01T10:14:58.150Z,60.01
2023-08-01T10:15:58.141Z,58.78
2023-08-01T10:16:58.177Z,60.32
2023-08-01T10:17:58.271Z,60.54
2023-08-01T10:18:58.092Z,62.79
2023-08-01T10:19:58.076Z,61.93
2023-08-01T10:20:58.093Z,63.42
2023-08-01T10:21:58.071Z,62.53
2023-08-01T10:22:58.050Z,63.28
2023-08-01T10:23:58.037Z,64.27
2023-08-01T10:24:58.024Z,65.78
2023-08-01T10:25:58.003Z,69.09
2023-08-01T10:26:58.034Z,67.47
2023-08-01T10:27:58.074Z,66.48
2023-08-01T10:28:57.963Z,64.47
2023-08-01T10:29:57.953Z,61.02
2023-08-01T10:30:57.943Z,59.41
2023-08-01T10:31:57.962Z,58.29
2023-08-01T10:32:58.028Z,58.43
2023-08-01T10:33:57.907Z,59.39
2023-08-01T10:34:57.890Z,60.77
2023-08-01T10:35:57.962Z,64.83
2023-08-01T10:36:57.931Z,62.34
2023-08-01T10:37:57.923Z,65.02
2023-08-01T10:38:57.843Z,66.35
2023-08-01T10:39:57.842Z,69.23
2023-08-01T10:40:57.854Z,70.23
2023-08-01T10:41:57.811Z,71.82
2023-08-01T10:42:57.805Z,72.75
2023-08-01T10:43:57.792Z,72.25
2023-08-01T10:44:57.765Z,73.69
2023-08-01T10:45:57.787Z,73.19
2023-08-01T10:46:57.742Z,72.49
2023-08-01T10:47:57.754Z,73.79
2023-08-01T10:48:57.729Z,73.99
2023-08-01T10:49:57.719Z,73.09
2023-08-01T10:50:57.744Z,73.35
2023-08-01T10:51:57.678Z,72.45
2023-08-01T10:53:57.653Z,73.55
2023-08-01T10:54:57.653Z,73.19
2023-08-01T10:55:57.644Z,75.09
2023-08-01T10:56:57.611Z,75.59
2023-08-01T10:57:57.616Z,75.28
2023-08-01T10:58:57.587Z,73.69
2023-08-01T10:59:57.594Z,72.82
2023-08-01T11:00:57.583Z,71.92
2023-08-01T11:01:57.549Z,71.56
2023-08-01T11:02:57.609Z,73.46
2023-08-01T11:03:57.608Z,73.46
2023-08-01T11:04:58.008Z,73.79
2023-08-01T11:05:57.501Z,76.09
2023-08-01T11:06:57.571Z,76.69
2023-08-01T11:07:57.474Z,77.09
2023-08-01T11:08:57.510Z,76.43
2023-08-01T11:09:57.466Z,77.23
2023-08-01T11:10:57.427Z,78.63
2023-08-01T11:11:57.422Z,76.26
2023-08-01T11:12:57.410Z,75.51
2023-08-01T11:13:57.411Z,73.08
2023-08-01T11:14:57.416Z,70.19
2023-08-01T11:15:57.394Z,69.43
2023-08-01T11:16:57.363Z,68.66
2023-08-01T11:17:57.588Z,65.23
2023-08-01T11:18:57.342Z,64.14
2023-08-01T11:19:57.320Z,62.82
2023-08-01T11:20:57.304Z,63.71
2023-08-01T11:21:57.289Z,62.82
2023-08-01T11:22:57.300Z,62.85
2023-08-01T11:23:57.285Z,64.63
2023-08-01T11:24:57.320Z,63.98
2023-08-01T11:25:57.262Z,60.75
2023-08-01T11:26:57.229Z,59.38
2023-08-01T11:27:57.488Z,57.65
2023-08-01T11:28:57.218Z,59.69
2023-08-01T11:29:57.189Z,60.57
2023-08-01T11:30:57.202Z,62.15
2023-08-01T11:31:57.171Z,61.10
2023-08-01T11:32:57.227Z,62.37
2023-08-01T11:33:57.169Z,63.40
2023-08-01T11:34:57.126Z,64.72
2023-08-01T11:35:57.126Z,65.55
2023-08-01T11:36:57.129Z,64.85
2023-08-01T11:37:57.103Z,63.40
2023-08-01T11:38:57.068Z,61.42
2023-08-01T11:39:57.059Z,59.96
2023-08-01T11:40:57.088Z,61.98
2023-08-01T11:41:57.043Z,62.57
2023-08-01T11:42:57.031Z,63.49
2023-08-01T11:43:57.015Z,62.66
2023-08-01T11:44:56.994Z,64.09
2023-08-01T11:45:57.057Z,64.98
2023-08-01T11:46:56.993Z,65.05
2023-08-01T11:47:57.006Z,65.97
2023-08-01T11:48:56.940Z,65.80
2023-08-01T11:49:56.946Z,67.10
2023-08-01T11:50:56.918Z,66.90
2023-08-01T11:51:56.923Z,66.60
2023-08-01T11:52:56.894Z,67.40
2023-08-01T11:53:56.930Z,67.57
2023-08-01T11:54:56.871Z,66.90
2023-08-01T11:55:56.868Z,67.50
2023-08-01T11:56:56.881Z,66.97
2023-08-01T11:57:56.830Z,67.07
2023-08-01T11:58:56.819Z,66.08
2023-08-01T11:59:56.801Z,65.58
2023-08-01T12:00:56.872Z,65.35
2023-08-01T12:01:56.845Z,65.12
2023-08-01T12:02:56.804Z,61.80
2023-08-01T12:03:56.809Z,61.96
2023-08-01T12:04:56.737Z,61.87
2023-08-01T12:05:56.737Z,62.05
2023-08-01T12:06:56.747Z,61.19
2023-08-01T12:07:56.705Z,58.83
2023-08-01T12:08:56.690Z,58.30
2023-08-01T12:09:56.710Z,56.46
2023-08-01T12:10:56.765Z,56.37
2023-08-01T12:11:56.656Z,55.93
2023-08-01T12:12:56.654Z,55.38
2023-08-01T12:13:56.623Z,55.68
2023-08-01T12:14:56.643Z,56.12
2023-08-01T12:15:56.670Z,55.00
2023-08-01T12:16:56.612Z,52.09
2023-08-01T12:17:56.605Z,53.42
2023-08-01T12:19:00.813Z,54.31
2023-08-01T12:19:56.551Z,54.30
2023-08-01T12:20:56.549Z,51.92
2023-08-01T12:21:56.536Z,51.57
2023-08-01T12:22:56.513Z,52.63
2023-08-01T12:23:56.501Z,54.17
2023-08-01T12:24:56.484Z,55.51
2023-08-01T12:25:56.492Z,56.77
2023-08-01T12:26:56.474Z,57.04
2023-08-01T12:27:56.451Z,55.16
2023-08-01T12:28:56.455Z,57.51
2023-08-01T12:29:56.444Z,55.47
2023-08-01T12:30:56.455Z,54.27
2023-08-01T12:31:56.414Z,54.39
2023-08-01T12:32:56.442Z,54.36
2023-08-01T12:33:56.385Z,55.04
2023-08-01T12:34:56.404Z,56.51
2023-08-01T12:35:56.354Z,58.54
2023-08-01T12:36:56.333Z,58.94
2023-08-01T12:37:56.317Z,59.85
2023-08-01T12:38:56.315Z,58.36
2023-08-01T12:39:56.310Z,59.08
2023-08-01T12:40:56.292Z,59.75
2023-08-01T12:41:56.271Z,58.53
2023-08-01T12:42:56.249Z,58.45
2023-08-01T12:43:56.252Z,59.72
2023-08-01T12:44:56.268Z,59.12
2023-08-01T12:45:56.216Z,57.82
2023-08-01T12:46:56.252Z,56.15
2023-08-01T12:47:56.242Z,56.21
2023-08-01T12:48:56.196Z,56.66
2023-08-01T12:49:56.185Z,57.45
2023-08-01T12:50:56.149Z,57.13
2023-08-01T12:51:56.141Z,56.57
2023-08-01T12:52:56.125Z,56.93
2023-08-01T12:53:56.175Z,59.66
2023-08-01T12:54:56.102Z,60.49